Time;durP1;ratioP1;P1;durP2;ratioP2;P2;SDS_P1;SDS_P2;PMS_P1;PMS_P2;Temp;Humidity;BMP_temperature;BMP_pressure;BME280_temperature;BME280_humidity;BME280_pressure;Samples;Min_cycle;Max_cycle;Signal;HPM_P1;HPM_P2
2022/05/12 00:01:35;;;;;;;6.78;1.52;;;11.40;99.90;;;;;;5091320;28;20043;-74
2022/05/12 00:04:00;;;;;;;5.50;1.58;;;11.40;99.90;;;;;;5097373;28;20143;-74
2022/05/12 00:06:26;;;;;;;6.15;1.70;;;11.40;99.90;;;;;;5104064;28;20122;-74
2022/05/12 00:08:51;;;;;;;6.80;1.42;;;11.40;99.90;;;;;;5099476;28;20058;-74
2022/05/12 00:11:17;;;;;;;3.60;1.23;;;11.40;99.90;;;;;;5098589;28;20078;-74
2022/05/12 00:13:43;;;;;;;5.03;1.10;;;11.30;99.90;;;;;;5097949;28;20036;-74
2022/05/12 00:16:08;;;;;;;4.30;1.15;;;11.30;99.90;;;;;;5097250;28;20088;-74
2022/05/12 00:18:34;;;;;;;4.38;1.10;;;11.20;99.90;;;;;;5096503;28;20081;-75
2022/05/12 00:21:00;;;;;;;5.55;1.10;;;11.20;99.90;;;;;;5093855;28;20427;-74
2022/05/12 00:23:27;;;;;;;6.47;1.00;;;11.10;99.90;;;;;;5102490;28;20114;-74
2022/05/12 00:25:53;;;;;;;7.82;1.30;;;11.00;99.90;;;;;;5099999;28;20050;-74
2022/05/12 00:28:21;;;;;;;4.53;1.00;;;11.00;99.90;;;;;;5078592;28;20051;-74
2022/05/12 00:30:49;;;;;;;5.55;1.00;;;11.00;99.90;;;;;;5081216;28;20504;-76
2022/05/12 00:33:20;;;;;;;4.53;1.00;;;10.90;99.90;;;;;;5098493;28;20070;-73
2022/05/12 00:35:46;;;;;;;5.05;1.10;;;10.90;99.90;;;;;;5098770;28;20494;-74
2022/05/12 00:38:12;;;;;;;6.18;1.20;;;10.80;99.90;;;;;;5098603;28;20047;-74
2022/05/12 00:40:40;;;;;;;3.95;1.00;;;10.80;99.90;;;;;;5083065;28;20044;-74
2022/05/12 00:43:28;;;;;;;3.47;0.93;;;10.80;99.90;;;;;;5088321;28;20394;-74
2022/05/12 00:45:53;;;;;;;3.42;1.27;;;10.70;99.90;;;;;;5091190;28;20044;-74
2022/05/12 00:48:19;;;;;;;5.35;1.10;;;10.70;99.90;;;;;;5104669;28;20080;-75
2022/05/12 00:50:45;;;;;;;6.28;1.20;;;10.70;99.90;;;;;;5099686;28;20040;-74
2022/05/12 00:53:12;;;;;;;2.88;1.10;;;10.60;99.90;;;;;;5080948;28;20036;-75
2022/05/12 00:55:41;;;;;;;4.90;1.08;;;10.50;99.90;;;;;;5073969;28;20407;-75
2022/05/12 00:58:10;;;;;;;8.77;1.08;;;10.60;99.90;;;;;;5081764;28;20043;-75
2022/05/12 01:00:37;;;;;;;10.77;1.58;;;10.70;99.90;;;;;;5099450;28;20063;-74
2022/05/12 01:03:07;;;;;;;6.45;1.15;;;10.40;99.90;;;;;;5085229;28;20051;-74
2022/05/12 01:05:33;;;;;;;5.78;1.20;;;10.40;99.90;;;;;;5087756;28;20047;-74
2022/05/12 01:07:59;;;;;;;5.57;1.45;;;10.30;99.90;;;;;;5101510;28;20555;-74
2022/05/12 01:10:26;;;;;;;2.20;0.90;;;10.30;99.90;;;;;;5086218;28;20047;-73
2022/05/12 01:12:52;;;;;;;5.68;1.33;;;10.30;99.90;;;;;;5101076;28;20039;-73
2022/05/12 01:15:20;;;;;;;6.18;0.95;;;10.30;99.90;;;;;;5088690;28;20046;-74
2022/05/12 01:17:46;;;;;;;4.32;1.10;;;10.30;99.90;;;;;;5087630;28;20070;-75
2022/05/12 01:20:13;;;;;;;6.88;1.27;;;10.20;99.90;;;;;;5090982;28;20035;-75
2022/05/12 01:22:51;;;;;;;5.05;1.23;;;10.10;99.90;;;;;;5089506;28;20089;-75
2022/05/12 01:25:20;;;;;;;3.58;1.10;;;10.10;99.90;;;;;;5092275;28;20039;-75
2022/05/12 01:27:46;;;;;;;5.32;1.20;;;10.00;99.90;;;;;;5097196;28;20371;-75
2022/05/12 01:30:14;;;;;;;5.10;1.10;;;10.00;99.90;;;;;;5086481;28;20505;-75
2022/05/12 01:32:40;;;;;;;5.03;1.30;;;10.10;99.90;;;;;;5109522;28;20122;-75
2022/05/12 01:35:07;;;;;;;2.08;0.88;;;10.00;99.90;;;;;;5079367;28;20036;-75
2022/05/12 01:37:36;;;;;;;5.55;1.25;;;9.90;99.90;;;;;;5090252;28;20032;-75
2022/05/12 01:40:03;;;;;;;6.35;1.23;;;9.90;99.90;;;;;;5079278;28;20427;-75
2022/05/12 01:42:29;;;;;;;5.53;1.00;;;9.90;99.90;;;;;;5092746;28;20093;-76
2022/05/12 01:44:54;;;;;;;5.57;1.20;;;9.90;99.90;;;;;;5098588;28;20048;-75
2022/05/12 01:47:20;;;;;;;3.92;1.00;;;9.80;99.90;;;;;;5103735;28;20497;-75
2022/05/12 01:49:48;;;;;;;5.70;1.48;;;9.80;99.90;;;;;;5100318;28;20065;-75
2022/05/12 01:52:13;;;;;;;3.70;1.38;;;10.00;99.90;;;;;;5082912;28;20512;-75
2022/05/12 01:54:39;;;;;;;4.78;1.40;;;9.80;99.90;;;;;;5085507;28;20040;-75
2022/05/12 01:57:05;;;;;;;2.05;1.15;;;9.80;99.90;;;;;;5093963;28;20036;-75
2022/05/12 01:59:31;;;;;;;6.47;1.35;;;9.80;99.90;;;;;;5089224;28;20447;-75
2022/05/12 02:01:56;;;;;;;5.60;1.50;;;9.70;99.90;;;;;;5097165;28;20073;-75
2022/05/12 02:04:22;;;;;;;2.53;1.52;;;9.70;99.90;;;;;;5081627;28;20098;-75
2022/05/12 02:06:48;;;;;;;2.97;1.42;;;9.70;99.90;;;;;;5102966;28;20040;-75
2022/05/12 02:09:13;;;;;;;5.43;1.70;;;9.70;99.90;;;;;;5098748;28;20378;-75
2022/05/12 02:11:39;;;;;;;9.88;1.65;;;9.70;99.90;;;;;;5098713;28;20051;-75
2022/05/12 02:14:06;;;;;;;8.00;1.73;;;9.80;99.90;;;;;;5091594;28;20036;-75
2022/05/12 02:16:33;;;;;;;5.75;1.80;;;9.60;99.90;;;;;;5097391;28;20044;-75
2022/05/12 02:19:00;;;;;;;9.02;2.40;;;9.60;99.90;;;;;;5105581;28;20440;-75
2022/05/12 02:21:26;;;;;;;5.70;2.13;;;9.70;99.90;;;;;;5080872;28;20097;-74
2022/05/12 02:23:52;;;;;;;4.72;1.90;;;9.70;99.90;;;;;;5098881;28;20031;-74
2022/05/12 02:26:17;;;;;;;5.72;2.17;;;9.60;99.90;;;;;;5080873;28;20079;-74
2022/05/12 02:28:43;;;;;;;10.07;2.33;;;9.60;99.90;;;;;;5103946;28;20063;-75
2022/05/12 02:31:08;;;;;;;5.45;2.15;;;9.60;99.90;;;;;;5076353;28;20440;-75
2022/05/12 02:33:34;;;;;;;11.02;2.60;;;9.60;99.90;;;;;;5092265;28;20036;-75
2022/05/12 02:36:02;;;;;;;10.50;2.70;;;9.60;99.90;;;;;;5102788;28;20443;-75
2022/05/12 02:38:28;;;;;;;14.52;2.65;;;9.50;99.90;;;;;;5077128;28;20139;-73
2022/05/12 02:40:54;;;;;;;11.70;2.47;;;9.60;99.90;;;;;;5103933;28;20047;-73
2022/05/12 02:43:23;;;;;;;10.68;3.00;;;9.60;99.90;;;;;;5105498;28;20051;-75
2022/05/12 02:45:58;;;;;;;11.55;3.35;;;9.60;99.90;;;;;;5092045;28;20127;-75
2022/05/12 02:48:27;;;;;;;14.00;2.60;;;9.50;99.90;;;;;;5094907;28;20078;-75
2022/05/12 02:50:53;;;;;;;17.58;3.10;;;9.70;99.90;;;;;;5098151;28;20344;-75
2022/05/12 02:53:19;;;;;;;16.63;3.15;;;9.50;99.90;;;;;;5096709;28;20516;-75
2022/05/12 02:55:45;;;;;;;11.45;2.83;;;9.60;99.90;;;;;;5090164;28;20062;-75
2022/05/12 02:58:11;;;;;;;11.25;3.40;;;9.60;99.90;;;;;;5095017;28;20035;-75
2022/05/12 03:00:38;;;;;;;14.48;3.22;;;9.90;99.90;;;;;;5096655;28;20048;-75
2022/05/12 03:03:05;;;;;;;13.55;3.30;;;9.50;99.90;;;;;;5071920;28;20048;-74
2022/05/12 03:05:32;;;;;;;15.10;3.45;;;9.60;99.90;;;;;;5073184;28;20457;-75
2022/05/12 03:07:58;;;;;;;14.43;3.70;;;9.70;99.90;;;;;;5090544;28;20147;-75
2022/05/12 03:10:24;;;;;;;14.82;3.63;;;9.50;99.90;;;;;;5074796;28;20040;-74
2022/05/12 03:12:50;;;;;;;11.73;3.25;;;9.50;99.90;;;;;;5102984;28;20058;-75
2022/05/12 03:15:17;;;;;;;11.75;3.17;;;9.50;99.90;;;;;;5094970;28;20085;-75
2022/05/12 03:17:44;;;;;;;13.15;3.55;;;9.50;99.90;;;;;;5099752;28;20051;-74
2022/05/12 03:20:17;;;;;;;10.82;3.10;;;9.70;99.90;;;;;;5082451;28;20055;-75
2022/05/12 03:22:44;;;;;;;11.18;3.70;;;9.50;99.90;;;;;;5104648;28;20059;-74
2022/05/12 03:25:11;;;;;;;13.68;3.30;;;9.50;99.90;;;;;;5092937;28;20050;-75
2022/05/12 03:27:37;;;;;;;13.25;3.58;;;9.50;99.90;;;;;;5108948;28;20070;-75
2022/05/12 03:30:07;;;;;;;13.20;4.30;;;9.10;99.90;;;;;;5083119;28;20038;-74
2022/05/12 03:32:33;;;;;;;11.45;3.83;;;9.40;99.90;;;;;;5079414;28;20040;-75
2022/05/12 03:35:00;;;;;;;12.32;3.80;;;9.40;99.90;;;;;;5080215;28;20040;-74
2022/05/12 03:37:26;;;;;;;11.75;3.92;;;9.50;99.90;;;;;;5088591;28;20043;-74
2022/05/12 03:39:51;;;;;;;20.10;4.05;;;9.30;99.90;;;;;;5075819;28;20044;-75
2022/05/12 03:42:18;;;;;;;14.50;4.13;;;9.30;99.90;;;;;;5098726;28;20052;-75
2022/05/12 03:44:49;;;;;;;12.32;4.10;;;9.40;99.90;;;;;;5099776;28;20043;-74
2022/05/12 03:47:21;;;;;;;11.68;4.40;;;9.40;99.90;;;;;;5106300;28;20143;-74
2022/05/12 03:49:52;;;;;;;14.63;4.13;;;9.30;99.90;;;;;;5093645;28;20044;-75
2022/05/12 03:52:18;;;;;;;18.13;4.32;;;9.30;99.90;;;;;;5107860;28;20044;-75
2022/05/12 03:54:44;;;;;;;12.15;4.25;;;9.30;99.90;;;;;;5076899;28;20048;-74
2022/05/12 03:57:11;;;;;;;11.55;4.40;;;9.30;99.90;;;;;;5104937;28;20062;-75
2022/05/12 03:59:39;;;;;;;15.13;4.43;;;9.20;99.90;;;;;;5093625;28;20050;-74
2022/05/12 04:02:06;;;;;;;11.95;4.53;;;9.30;99.90;;;;;;5110927;27;20130;-75
2022/05/12 04:04:32;;;;;;;14.27;4.63;;;9.30;99.90;;;;;;5106338;28;20040;-75
2022/05/12 04:06:58;;;;;;;11.23;4.53;;;9.40;99.90;;;;;;5106959;28;20047;-73
2022/05/12 04:09:25;;;;;;;11.68;4.47;;;9.40;99.90;;;;;;5101526;28;20056;-74
2022/05/12 04:11:50;;;;;;;17.10;4.72;;;9.30;99.90;;;;;;5093977;28;20046;-75
2022/05/12 04:14:16;;;;;;;14.95;4.68;;;9.30;99.90;;;;;;5106369;28;20036;-75
2022/05/12 04:16:41;;;;;;;12.95;4.95;;;9.70;99.90;;;;;;5100586;28;20039;-75
2022/05/12 04:19:07;;;;;;;10.52;4.57;;;9.30;99.90;;;;;;5087104;28;20487;-75
2022/05/12 04:21:37;;;;;;;14.32;4.40;;;9.40;99.90;;;;;;5102888;28;20097;-75
2022/05/12 04:24:07;;;;;;;21.75;5.32;;;9.40;99.90;;;;;;5093382;28;20101;-75
2022/05/12 04:26:34;;;;;;;16.40;5.10;;;9.40;99.90;;;;;;5079588;28;20050;-75
2022/05/12 04:29:00;;;;;;;13.65;5.43;;;9.50;99.90;;;;;;5118590;27;20072;-75
2022/05/12 04:31:25;;;;;;;14.88;5.38;;;9.50;99.90;;;;;;5093095;28;20068;-75
2022/05/12 04:36:36;;;;;;;17.20;5.47;;;9.60;99.90;;;;;;5095120;28;20063;-74
2022/05/12 04:39:03;;;;;;;15.15;5.03;;;9.60;99.90;;;;;;5094748;28;20374;-74
2022/05/12 04:41:29;;;;;;;14.70;5.72;;;9.70;99.90;;;;;;5099850;28;20039;-74
2022/05/12 04:43:55;;;;;;;15.27;4.93;;;9.70;99.90;;;;;;5092021;28;20070;-74
2022/05/12 04:46:22;;;;;;;11.30;5.20;;;9.70;99.90;;;;;;5079874;28;20071;-74
2022/05/12 04:48:47;;;;;;;15.65;5.28;;;9.70;99.90;;;;;;5080126;28;20444;-75
2022/05/12 04:51:13;;;;;;;19.77;5.60;;;9.80;99.90;;;;;;5098131;28;20031;-74
2022/05/12 04:53:39;;;;;;;18.67;5.75;;;9.90;99.90;;;;;;5081843;28;20032;-74
2022/05/12 04:56:05;;;;;;;16.40;5.20;;;9.90;99.90;;;;;;5092403;28;20051;-74
2022/05/12 04:58:30;;;;;;;17.48;5.50;;;10.00;99.90;;;;;;5074413;28;20051;-74
2022/05/12 05:00:56;;;;;;;17.10;5.35;;;10.00;99.90;;;;;;5096404;28;20138;-74
2022/05/12 05:03:22;;;;;;;12.88;5.72;;;10.10;99.90;;;;;;5087254;28;20066;-74
2022/05/12 05:05:49;;;;;;;16.00;5.70;;;10.10;99.90;;;;;;5098025;28;20090;-74
2022/05/12 05:08:18;;;;;;;17.08;5.97;;;10.10;99.90;;;;;;5092070;28;20040;-75
2022/05/12 05:10:44;;;;;;;14.00;5.57;;;10.30;99.90;;;;;;5098990;28;20035;-74
2022/05/12 05:13:10;;;;;;;14.40;5.88;;;10.20;99.90;;;;;;5098574;28;20049;-74
2022/05/12 05:15:36;;;;;;;19.58;6.25;;;10.40;99.90;;;;;;5100125;28;20044;-74
2022/05/12 05:18:03;;;;;;;21.63;6.03;;;10.50;99.90;;;;;;5075936;28;20024;-74
2022/05/12 05:20:30;;;;;;;18.08;5.72;;;10.40;99.90;;;;;;5104041;28;21050;-75
2022/05/12 05:22:56;;;;;;;18.70;5.70;;;10.50;99.90;;;;;;5077552;28;20042;-78
2022/05/12 05:25:23;;;;;;;21.50;6.07;;;10.60;99.90;;;;;;5093148;28;20039;-77
2022/05/12 05:27:50;;;;;;;20.10;6.38;;;10.60;99.90;;;;;;5075016;28;20047;-76
2022/05/12 05:30:19;;;;;;;19.27;6.00;;;10.80;99.90;;;;;;5098539;28;20057;-74
2022/05/12 05:32:48;;;;;;;11.35;5.07;;;10.90;99.90;;;;;;5101571;28;20032;-74
2022/05/12 05:35:15;;;;;;;23.83;5.95;;;10.90;99.90;;;;;;5097627;28;20028;-72
2022/05/12 05:37:42;;;;;;;18.88;5.90;;;11.00;99.90;;;;;;5094037;28;20044;-73
2022/05/12 05:40:14;;;;;;;18.60;6.53;;;11.00;99.90;;;;;;5103488;28;20112;-77
2022/05/12 05:42:41;;;;;;;18.65;6.05;;;11.20;99.90;;;;;;5084667;28;20392;-75
2022/05/12 05:45:11;;;;;;;15.65;5.70;;;11.20;99.90;;;;;;5078156;28;20482;-75
2022/05/12 05:47:39;;;;;;;9.10;4.88;;;11.30;99.90;;;;;;5083765;28;20039;-74
2022/05/12 05:50:09;;;;;;;17.88;5.72;;;11.40;99.90;;;;;;5104919;28;20031;-75
2022/05/12 05:55:21;;;;;;;15.43;5.40;;;11.50;99.90;;;;;;5091347;28;20172;-75
2022/05/12 05:57:48;;;;;;;15.05;4.95;;;11.60;99.90;;;;;;5075280;28;20058;-76
2022/05/12 06:00:15;;;;;;;13.02;4.93;;;11.70;99.90;;;;;;5095257;28;20046;-76
2022/05/12 06:02:41;;;;;;;18.27;5.32;;;11.70;99.90;;;;;;5075379;28;20512;-75
2022/05/12 06:05:07;;;;;;;18.48;5.10;;;11.80;99.90;;;;;;5100076;28;20048;-74
2022/05/12 06:07:37;;;;;;;15.80;3.85;;;11.90;99.90;;;;;;5092710;28;20032;-75
2022/05/12 06:10:05;;;;;;;15.73;5.03;;;11.90;99.90;;;;;;5073756;28;20050;-75
2022/05/12 06:12:31;;;;;;;18.73;4.50;;;12.00;99.90;;;;;;5076432;28;20048;-74
2022/05/12 06:14:56;;;;;;;15.02;4.35;;;12.10;99.90;;;;;;5096001;28;20045;-75
2022/05/12 06:17:22;;;;;;;15.88;3.88;;;12.10;99.90;;;;;;5078692;28;20044;-74
2022/05/12 06:19:50;;;;;;;13.27;3.50;;;12.20;99.90;;;;;;5091237;28;20074;-75
2022/05/12 06:22:18;;;;;;;11.52;3.85;;;12.10;99.90;;;;;;5093566;28;20048;-75
2022/05/12 06:24:44;;;;;;;13.52;4.03;;;12.20;99.90;;;;;;5092357;28;20063;-75
2022/05/12 06:27:09;;;;;;;10.18;3.28;;;12.30;99.90;;;;;;5071964;28;20421;-75
2022/05/12 06:29:36;;;;;;;13.50;3.83;;;12.30;99.90;;;;;;5094671;28;20138;-75
2022/05/12 06:32:03;;;;;;;11.13;3.97;;;12.50;99.90;;;;;;5088586;28;20763;-74
2022/05/12 06:34:29;;;;;;;11.02;3.10;;;12.50;99.90;;;;;;5070442;28;20612;-75
2022/05/12 06:36:57;;;;;;;11.90;2.97;;;12.50;99.90;;;;;;5089090;28;20036;-76
2022/05/12 06:39:22;;;;;;;17.42;3.65;;;12.60;99.90;;;;;;5073452;28;20071;-78
2022/05/12 06:41:48;;;;;;;11.38;3.20;;;12.60;99.90;;;;;;5070720;28;20093;-77
2022/05/12 06:44:14;;;;;;;13.30;3.17;;;12.70;99.90;;;;;;5089809;28;20047;-77
2022/05/12 06:46:40;;;;;;;10.85;3.03;;;12.80;99.90;;;;;;5075047;28;20118;-76
2022/05/12 06:49:06;;;;;;;10.52;2.92;;;12.80;99.90;;;;;;5071744;28;20087;-74
2022/05/12 06:51:32;;;;;;;14.68;2.60;;;12.80;99.90;;;;;;5093895;28;20079;-75
2022/05/12 06:53:58;;;;;;;10.32;2.65;;;13.00;99.90;;;;;;5095086;28;20051;-75
2022/05/12 06:56:24;;;;;;;15.40;3.13;;;13.10;99.90;;;;;;5089580;28;20060;-75
2022/05/12 06:58:49;;;;;;;13.63;2.50;;;13.20;99.90;;;;;;5081744;28;20043;-74
2022/05/12 07:01:15;;;;;;;7.38;2.33;;;13.20;99.90;;;;;;5095560;28;20060;-73
2022/05/12 07:03:41;;;;;;;16.73;2.80;;;13.30;99.90;;;;;;5095080;28;20043;-73
2022/05/12 07:06:07;;;;;;;11.55;2.75;;;13.30;99.90;;;;;;5071094;28;20108;-76
2022/05/12 07:08:41;;;;;;;9.73;2.75;;;13.30;99.90;;;;;;5073489;28;20437;-75
2022/05/12 07:11:08;;;;;;;10.15;2.70;;;13.40;99.90;;;;;;5093684;28;20493;-76
2022/05/12 07:13:34;;;;;;;11.65;2.58;;;13.50;99.90;;;;;;5076853;28;20085;-75
2022/05/12 07:16:01;;;;;;;10.40;2.63;;;13.50;99.90;;;;;;5093121;28;20048;-74
2022/05/12 07:18:27;;;;;;;12.75;1.98;;;13.60;99.90;;;;;;5073381;28;20404;-73
2022/05/12 07:26:37;;;;;;;14.68;2.30;;;13.70;99.90;;;;;;5104288;28;20049;-74
2022/05/12 07:29:05;;;;;;;10.20;2.35;;;13.70;99.90;;;;;;5098964;27;20108;-75
2022/05/12 07:31:31;;;;;;;12.73;2.13;;;13.70;99.90;;;;;;5084699;28;20071;-74
2022/05/12 07:33:57;;;;;;;13.38;2.25;;;13.90;99.90;;;;;;5079325;28;20044;-75
2022/05/12 07:36:25;;;;;;;13.15;2.20;;;14.20;99.90;;;;;;5093077;28;20336;-75
2022/05/12 07:38:52;;;;;;;11.13;2.17;;;14.30;99.90;;;;;;5092350;28;20079;-75
2022/05/12 07:41:19;;;;;;;7.85;1.95;;;14.40;99.90;;;;;;5102988;28;21136;-75
2022/05/12 07:43:46;;;;;;;9.70;2.00;;;14.50;99.90;;;;;;5093618;28;20048;-75
2022/05/12 07:46:15;;;;;;;8.27;2.10;;;14.40;99.90;;;;;;5093441;28;20051;-75
2022/05/12 07:48:41;;;;;;;14.30;2.28;;;14.40;99.90;;;;;;5093319;28;20188;-75
2022/05/12 07:51:08;;;;;;;14.10;2.20;;;14.50;99.90;;;;;;5093224;28;20071;-75
2022/05/12 07:53:34;;;;;;;6.78;1.60;;;14.50;99.90;;;;;;5075184;28;20028;-76
2022/05/12 07:56:00;;;;;;;12.32;2.25;;;14.50;99.90;;;;;;5076154;28;20507;-75
2022/05/12 07:58:26;;;;;;;13.63;1.80;;;14.50;99.90;;;;;;5092937;28;20047;-75
2022/05/12 08:00:53;;;;;;;9.82;1.80;;;14.50;99.90;;;;;;5100581;28;20123;-75
2022/05/12 08:03:20;;;;;;;12.52;1.92;;;14.60;99.90;;;;;;5095221;28;20047;-75
2022/05/12 08:05:45;;;;;;;12.23;2.10;;;14.70;99.90;;;;;;5059612;28;20157;-75
2022/05/12 08:08:11;;;;;;;10.95;2.10;;;14.80;99.90;;;;;;5092159;28;20467;-75
2022/05/12 08:10:38;;;;;;;6.70;1.80;;;14.70;99.90;;;;;;5092832;28;20122;-75
2022/05/12 08:13:04;;;;;;;9.40;1.70;;;14.70;99.90;;;;;;5092604;28;20127;-74
2022/05/12 08:15:30;;;;;;;7.90;1.75;;;14.80;99.90;;;;;;5078224;28;20463;-75
2022/05/12 08:17:57;;;;;;;5.18;1.50;;;14.70;99.90;;;;;;5093259;28;20036;-75
2022/05/12 08:20:23;;;;;;;9.32;1.90;;;14.80;99.90;;;;;;5076019;28;20059;-75
2022/05/12 08:22:49;;;;;;;11.55;2.05;;;14.90;99.90;;;;;;5113903;28;20092;-75
2022/05/12 08:25:16;;;;;;;9.55;1.75;;;15.00;99.90;;;;;;5116667;28;20100;-73
2022/05/12 08:27:43;;;;;;;7.05;1.40;;;15.00;99.90;;;;;;5100668;28;20055;-73
2022/05/12 08:30:12;;;;;;;8.82;2.17;;;15.00;99.90;;;;;;5099997;28;20051;-75
2022/05/12 08:32:38;;;;;;;14.88;1.85;;;15.00;99.90;;;;;;5092121;28;20079;-76
2022/05/12 08:35:05;;;;;;;11.20;2.17;;;15.20;99.90;;;;;;5092528;28;20075;-75
2022/05/12 08:37:31;;;;;;;11.88;1.90;;;15.20;99.90;;;;;;5094176;28;20043;-75
2022/05/12 08:39:57;;;;;;;8.68;1.67;;;15.30;99.90;;;;;;5110902;28;22712;-75
2022/05/12 08:42:33;;;;;;;8.25;2.03;;;15.40;99.90;;;;;;5094394;28;20052;-75
2022/05/12 08:45:03;;;;;;;7.30;1.58;;;15.60;99.90;;;;;;5098022;28;20434;-74
2022/05/12 08:47:34;;;;;;;7.28;2.15;;;15.70;99.90;;;;;;5096673;28;20044;-75
2022/05/12 08:50:01;;;;;;;10.93;1.70;;;15.80;99.90;;;;;;5092808;28;20126;-75
2022/05/12 08:52:50;;;;;;;12.02;1.90;;;16.00;99.90;;;;;;5074867;28;20097;-75
2022/05/12 08:55:33;;;;;;;11.95;1.80;;;16.10;99.90;;;;;;5107840;28;20541;-76
2022/05/12 08:58:08;;;;;;;7.85;1.67;;;16.10;99.90;;;;;;5075667;28;20098;-75
2022/05/12 09:00:40;;;;;;;7.00;1.60;;;16.30;99.90;;;;;;5098010;28;20028;-75
2022/05/12 09:03:18;;;;;;;6.88;1.40;;;16.50;99.90;;;;;;5106225;28;20043;-75
2022/05/12 09:05:58;;;;;;;8.38;1.60;;;16.60;99.90;;;;;;5095374;28;20039;-75
2022/05/12 09:09:09;;;;;;;8.07;1.60;;;16.50;99.90;;;;;;5104829;28;20032;-75
2022/05/12 09:11:54;;;;;;;8.88;1.50;;;16.50;99.90;;;;;;5034925;28;20102;-75
2022/05/12 09:14:36;;;;;;;9.73;1.50;;;16.60;99.90;;;;;;5026800;28;20911;-76
2022/05/12 09:17:04;;;;;;;7.00;1.50;;;16.80;99.90;;;;;;5054087;28;20366;-75
2022/05/12 09:19:30;;;;;;;8.23;1.67;;;16.80;99.90;;;;;;5051845;28;20049;-75
2022/05/12 09:21:56;;;;;;;7.10;1.60;;;16.80;99.90;;;;;;5051823;28;20046;-75
2022/05/12 09:24:22;;;;;;;8.15;1.60;;;16.70;99.90;;;;;;5035645;28;20392;-75
2022/05/12 09:26:51;;;;;;;6.68;1.50;;;16.90;99.90;;;;;;5053457;28;20150;-77
2022/05/12 09:29:19;;;;;;;7.57;1.42;;;17.10;99.90;;;;;;5049522;28;20052;-76
2022/05/12 09:32:13;;;;;;;9.95;1.40;;;17.10;99.90;;;;;;5069240;28;20048;-76
2022/05/12 09:34:46;;;;;;;4.85;1.30;;;16.90;99.90;;;;;;4938722;28;20166;-76
2022/05/12 09:37:25;;;;;;;5.82;1.38;;;16.70;99.90;;;;;;4955231;28;20051;-76
2022/05/12 09:39:53;;;;;;;6.47;1.77;;;16.60;99.90;;;;;;4953693;28;20047;-76
2022/05/12 09:42:40;;;;;;;7.38;1.85;;;16.40;99.90;;;;;;4971441;28;20501;-76
2022/05/12 09:45:20;;;;;;;10.80;1.58;;;16.70;99.90;;;;;;4973585;28;20049;-76
2022/05/12 09:47:46;;;;;;;7.60;1.50;;;16.60;99.90;;;;;;5014500;28;20053;-76
2022/05/12 09:50:22;;;;;;;7.45;1.33;;;16.60;99.90;;;;;;5014910;28;20083;-76
2022/05/12 09:52:57;;;;;;;7.53;1.50;;;16.70;99.90;;;;;;5011163;28;20057;-74
2022/05/12 09:55:27;;;;;;;9.25;1.40;;;16.70;99.90;;;;;;5018829;28;20049;-74
2022/05/12 09:58:01;;;;;;;8.52;1.80;;;16.90;99.90;;;;;;5014008;28;20128;-76
2022/05/12 10:00:38;;;;;;;8.25;1.95;;;16.90;99.90;;;;;;5026435;28;20060;-76
2022/05/12 10:09:04;;;;;;;3.88;1.20;;;16.80;99.90;;;;;;5010966;28;20045;-76
2022/05/12 10:11:34;;;;;;;8.93;1.33;;;16.70;99.90;;;;;;5028070;28;20048;-76
2022/05/12 10:14:04;;;;;;;8.05;1.40;;;16.70;99.90;;;;;;5091275;28;20513;-76
2022/05/12 10:16:31;;;;;;;7.10;1.55;;;17.10;99.90;;;;;;5108761;28;20494;-76
2022/05/12 10:19:03;;;;;;;5.13;1.50;;;17.10;99.90;;;;;;5094178;28;20042;-76
2022/05/12 10:21:41;;;;;;;5.78;1.17;;;17.30;99.90;;;;;;5099185;28;20070;-76
2022/05/12 10:24:38;;;;;;;5.30;1.23;;;17.10;99.90;;;;;;5089742;28;20127;-75
2022/05/12 10:27:19;;;;;;;7.03;1.30;;;17.20;99.90;;;;;;5089996;28;20048;-76
2022/05/12 10:30:12;;;;;;;8.45;1.50;;;17.50;99.90;;;;;;5073729;28;20044;-76
2022/05/12 10:33:09;;;;;;;3.65;1.15;;;17.90;99.90;;;;;;5076311;28;20487;-76
2022/05/12 10:35:43;;;;;;;7.00;1.30;;;18.40;99.90;;;;;;5093887;28;20076;-75
2022/05/12 10:38:23;;;;;;;10.10;1.25;;;18.50;99.90;;;;;;5105456;28;20039;-76
2022/05/12 10:40:54;;;;;;;6.28;1.55;;;18.60;99.90;;;;;;5079717;28;20443;-76
2022/05/12 10:43:20;;;;;;;5.72;1.38;;;18.40;99.90;;;;;;5072775;28;20082;-76
2022/05/12 10:46:11;;;;;;;9.43;1.50;;;18.60;99.90;;;;;;5085603;28;20093;-76
2022/05/12 10:48:58;;;;;;;7.28;1.75;;;18.60;99.90;;;;;;5081111;28;20028;-75
2022/05/12 10:51:43;;;;;;;6.80;1.35;;;18.50;99.90;;;;;;5074784;28;20500;-75
2022/05/12 10:54:39;;;;;;;6.77;1.40;;;18.00;99.90;;;;;;5089396;28;20043;-76
2022/05/12 10:57:24;;;;;;;3.80;1.20;;;17.90;99.90;;;;;;5089858;28;20599;-76
2022/05/12 10:59:56;;;;;;;4.32;1.00;;;18.10;99.90;;;;;;5073487;28;20044;-76
2022/05/12 11:02:45;;;;;;;5.43;1.17;;;18.50;99.90;;;;;;5089865;28;20371;-77
2022/05/12 11:05:30;;;;;;;4.82;1.23;;;18.40;99.90;;;;;;5090129;28;20048;-76
2022/05/12 11:08:14;;;;;;;4.10;1.20;;;18.60;99.90;;;;;;5088820;28;20044;-77
2022/05/12 11:10:54;;;;;;;4.30;1.03;;;18.70;99.90;;;;;;5074791;28;20044;-77
2022/05/12 11:13:28;;;;;;;6.32;1.75;;;18.80;99.90;;;;;;5073605;28;20311;-77
2022/05/12 11:16:10;;;;;;;7.05;1.00;;;19.10;99.90;;;;;;5074168;28;20443;-77
2022/05/12 11:18:50;;;;;;;4.75;1.08;;;19.30;99.90;;;;;;5074362;28;20043;-74
2022/05/12 11:21:28;;;;;;;4.65;1.17;;;19.00;99.90;;;;;;5085065;28;20035;-74
2022/05/12 11:23:59;;;;;;;4.82;1.23;;;18.80;99.90;;;;;;5103822;28;20050;-77
2022/05/12 11:26:48;;;;;;;3.22;0.90;;;18.90;99.90;;;;;;5089373;28;20040;-77
2022/05/12 11:29:48;;;;;;;7.57;1.00;;;18.60;99.90;;;;;;5089480;28;20093;-77
2022/05/12 11:32:43;;;;;;;4.32;1.40;;;18.40;99.90;;;;;;5072962;28;20036;-77
2022/05/12 11:35:11;;;;;;;;;;;18.50;99.90;;;;;;5090648;28;20036;-77
2022/05/12 11:37:43;;;;;;;4.47;1.15;;;18.60;99.90;;;;;;5077922;28;20412;-78
2022/05/12 11:40:12;;;;;;;7.28;1.23;;;18.70;99.90;;;;;;5089036;28;20114;-78
2022/05/12 11:45:47;;;;;;;5.22;1.85;;;19.20;99.90;;;;;;5089280;28;20236;-77
2022/05/12 11:48:40;;;;;;;5.85;1.10;;;19.30;99.90;;;;;;5089837;28;20074;-77
2022/05/12 11:51:40;;;;;;;9.75;1.55;;;19.60;99.90;;;;;;5093031;28;20043;-77
2022/05/12 11:54:40;;;;;;;5.90;1.73;;;18.90;99.80;;;;;;5091556;28;20036;-76
2022/05/12 11:57:32;;;;;;;8.27;1.73;;;18.70;99.90;;;;;;5093081;28;20082;-75
2022/05/12 12:00:00;;;;;;;7.15;1.85;;;18.50;99.90;;;;;;5075463;28;20044;-76
2022/05/12 12:02:31;;;;;;;8.00;1.63;;;18.80;99.90;;;;;;5075696;28;20124;-76
2022/05/12 12:05:00;;;;;;;6.97;1.40;;;19.30;99.90;;;;;;5092681;28;20085;-76
2022/05/12 12:07:32;;;;;;;7.13;1.50;;;19.40;99.90;;;;;;5092307;28;20348;-77
2022/05/12 12:10:22;;;;;;;8.23;1.77;;;19.70;99.80;;;;;;5094523;28;20040;-78
2022/05/12 12:12:50;;;;;;;4.57;1.55;;;19.20;99.90;;;;;;5092017;28;20571;-79
2022/05/12 12:15:30;;;;;;;7.78;1.70;;;18.90;99.90;;;;;;5091559;28;20120;-76
2022/05/12 12:17:58;;;;;;;5.65;1.40;;;19.00;99.90;;;;;;5075756;28;20379;-77
2022/05/12 12:20:29;;;;;;;4.50;1.23;;;19.20;99.90;;;;;;5095277;28;20112;-78
2022/05/12 12:23:22;;;;;;;6.22;1.30;;;19.20;99.90;;;;;;5091673;28;20340;-77
2022/05/12 12:26:10;;;;;;;4.78;1.40;;;19.00;99.70;;;;;;5075571;28;20086;-78
2022/05/12 12:28:57;;;;;;;5.75;1.40;;;19.10;99.30;;;;;;5091519;28;20122;-76
2022/05/12 12:31:37;;;;;;;5.97;1.30;;;19.20;99.50;;;;;;5093171;28;20486;-76
2022/05/12 12:34:14;;;;;;;3.25;1.17;;;19.20;99.30;;;;;;5092344;28;20056;-77
2022/05/12 12:36:48;;;;;;;5.40;1.27;;;19.30;98.30;;;;;;5091843;28;20036;-76
2022/05/12 12:39:37;;;;;;;5.30;1.40;;;19.70;97.50;;;;;;5074934;28;20036;-77
2022/05/12 12:42:33;;;;;;;4.70;0.82;;;19.60;96.90;;;;;;5105298;28;20294;-77
2022/05/12 12:45:10;;;;;;;5.15;1.08;;;20.00;96.00;;;;;;5067439;28;20158;-77
2022/05/12 12:48:07;;;;;;;4.78;1.35;;;20.20;96.70;;;;;;5077876;28;20056;-74
2022/05/12 12:50:40;;;;;;;3.70;1.02;;;20.00;97.40;;;;;;5021069;28;20053;-74
2022/05/12 12:53:06;;;;;;;7.13;1.20;;;20.70;98.20;;;;;;5028348;28;20062;-77
2022/05/12 12:58:33;;;;;;;8.90;1.80;;;19.80;96.40;;;;;;5014192;28;20159;-78
2022/05/12 13:01:02;;;;;;;6.25;1.20;;;20.30;98.00;;;;;;4995381;28;20276;-77
2022/05/12 13:03:33;;;;;;;5.47;1.52;;;19.90;96.20;;;;;;5013163;28;20057;-77
2022/05/12 13:06:11;;;;;;;4.32;1.50;;;20.40;96.40;;;;;;5013873;28;20053;-77
2022/05/12 13:08:37;;;;;;;4.53;1.15;;;20.30;94.40;;;;;;4996562;28;20053;-77
2022/05/12 13:11:06;;;;;;;5.10;1.30;;;20.50;95.30;;;;;;5010341;28;20054;-77
2022/05/12 13:13:45;;;;;;;7.32;1.40;;;20.30;95.00;;;;;;4997312;28;20037;-76
2022/05/12 13:16:16;;;;;;;5.18;1.30;;;20.10;95.10;;;;;;5013122;28;20334;-76
2022/05/12 13:18:47;;;;;;;10.00;1.30;;;20.40;94.60;;;;;;4978183;28;20537;-77
2022/05/12 13:21:37;;;;;;;8.15;1.40;;;21.00;94.10;;;;;;5006936;28;20207;-77
2022/05/12 13:24:12;;;;;;;6.65;1.35;;;20.90;94.50;;;;;;5032214;28;20502;-76
2022/05/12 13:26:44;;;;;;;7.03;1.52;;;20.90;95.40;;;;;;5030541;28;20044;-76